createdAt,value
2023-01-26T00:00:32.532Z,7.16
2023-01-26T00:15:53.703Z,5.88
2023-01-26T00:31:08.638Z,7.89
2023-01-26T00:46:13.786Z,8.35
2023-01-26T01:01:19.223Z,6.18
2023-01-26T01:16:23.530Z,3.23
2023-01-26T01:31:29.932Z,2.04
2023-01-26T01:46:34.712Z,1.54
2023-01-26T02:01:40.299Z,1.40
2023-01-26T02:16:44.512Z,1.39
2023-01-26T02:31:49.220Z,1.40
2023-01-26T02:46:53.447Z,1.40
2023-01-26T03:01:58.997Z,1.41
2023-01-26T03:17:03.203Z,3.73
2023-01-26T03:32:07.869Z,8.08
2023-01-26T03:47:30.547Z,9.21
2023-01-26T04:02:54.325Z,8.59
2023-01-26T04:18:16.881Z,8.75
2023-01-26T04:33:21.835Z,8.16
2023-01-26T04:48:26.586Z,4.34
2023-01-26T05:03:32.944Z,2.46
2023-01-26T05:18:37.242Z,1.58
2023-01-26T05:33:54.418Z,1.39
2023-01-26T05:49:11.652Z,1.35
2023-01-26T06:04:16.164Z,1.35
2023-01-26T06:19:26.287Z,2.63
2023-01-26T06:34:34.999Z,6.94
2023-01-26T06:49:41.366Z,8.12
2023-01-26T07:04:48.786Z,9.30
2023-01-26T07:19:53.567Z,8.60
2023-01-26T07:34:58.978Z,4.67
2023-01-26T07:50:06.251Z,2.80
2023-01-26T08:05:11.645Z,1.85
2023-01-26T08:20:16.241Z,1.56
2023-01-26T08:35:20.557Z,4.74
2023-01-26T08:50:26.025Z,7.83
2023-01-26T09:05:33.523Z,8.65
2023-01-26T09:20:41.760Z,9.12
2023-01-26T09:35:47.802Z,9.22
2023-01-26T09:51:03.199Z,5.47
2023-01-26T10:06:10.540Z,3.29
2023-01-26T10:21:38.882Z,6.68
2023-01-26T10:36:44.861Z,8.11
2023-01-26T10:52:52.920Z,8.30
2023-01-26T11:08:02.926Z,8.42
2023-01-26T11:23:11.272Z,6.52
2023-01-26T11:38:34.029Z,2.86
2023-01-26T11:53:49.552Z,2.27
2023-01-26T12:08:55.294Z,6.63
2023-01-26T12:24:03.414Z,8.51
2023-01-26T12:39:17.594Z,8.91
2023-01-26T12:54:33.085Z,8.75
2023-01-26T13:09:37.871Z,4.67
2023-01-26T13:24:44.283Z,2.24
2023-01-26T13:39:52.794Z,1.57
2023-01-26T13:55:01.063Z,1.28
2023-01-26T14:10:07.440Z,3.81
2023-01-26T14:25:11.978Z,7.41
2023-01-26T14:40:17.077Z,8.42
2023-01-26T14:55:27.207Z,8.69
2023-01-26T15:10:31.861Z,8.79
2023-01-26T15:25:38.435Z,5.62
2023-01-26T15:40:44.561Z,2.39
2023-01-26T15:56:08.744Z,1.22
2023-01-26T17:00:19.448Z,8.85
2023-01-26T17:15:25.164Z,8.44
2023-01-26T17:30:30.187Z,8.04
2023-01-26T17:45:34.277Z,7.73
2023-01-26T18:00:39.454Z,3.95
2023-01-26T18:15:44.893Z,1.66
2023-01-26T18:30:49.342Z,0.80
2023-01-26T18:45:53.902Z,2.12
2023-01-26T19:00:58.715Z,6.26
2023-01-26T19:16:03.371Z,7.28
2023-01-26T19:31:07.957Z,7.67
2023-01-26T19:46:12.649Z,7.66
2023-01-26T20:01:17.498Z,7.67
2023-01-26T20:16:21.990Z,7.90
2023-01-26T20:31:27.085Z,4.83
2023-01-26T20:46:40.472Z,1.83
2023-01-26T21:01:45.094Z,0.91
2023-01-26T21:16:49.666Z,0.66
2023-01-26T21:31:55.055Z,3.36
2023-01-26T21:47:00.391Z,7.27
2023-01-26T22:02:06.683Z,8.16
2023-01-26T22:17:11.704Z,8.26
2023-01-26T22:32:17.119Z,8.04
2023-01-26T22:47:22.002Z,7.73
2023-01-26T23:02:26.701Z,3.75
2023-01-26T23:17:31.034Z,1.39
2023-01-26T23:32:36.053Z,2.11
2023-01-26T23:47:41.440Z,6.53
